createdAt,value
2022-08-11T00:05:20.040Z,100926.38
2022-08-11T00:12:08.144Z,100930.41
2022-08-11T00:18:58.938Z,100933.22
2022-08-11T00:25:49.060Z,100916.31
2022-08-11T00:32:35.387Z,100872.44
2022-08-11T00:39:28.962Z,100925.19
2022-08-11T00:46:25.864Z,100924.78
2022-08-11T00:53:37.053Z,100923.97
2022-08-11T01:00:27.508Z,100920.72
2022-08-11T01:08:05.273Z,100908.66
2022-08-11T01:15:35.844Z,100929.19
2022-08-11T01:23:12.835Z,100925.16
2022-08-11T01:30:54.223Z,100934.41
2022-08-11T01:38:34.201Z,100927.16
2022-08-11T01:45:36.377Z,100930.78
2022-08-11T01:52:33.676Z,100940.06
2022-08-11T01:59:29.392Z,100934.84
2022-08-11T02:06:37.819Z,100919.94
2022-08-11T02:13:39.242Z,100947.72
2022-08-11T02:20:47.468Z,100932.00
2022-08-11T02:27:44.163Z,100937.22
2022-08-11T02:34:59.762Z,100927.56
2022-08-11T02:42:32.817Z,100926.75
2022-08-11T03:03:24.185Z,100927.50
2022-08-11T03:10:16.514Z,100863.78
2022-08-11T03:17:18.614Z,100873.44
2022-08-11T03:24:14.227Z,100925.41
2022-08-11T03:31:24.945Z,100929.00
2022-08-11T03:38:15.812Z,100929.38
2022-08-11T03:45:24.794Z,100927.69
2022-08-11T03:52:27.737Z,100931.25
2022-08-11T03:59:51.644Z,100943.66
2022-08-11T04:07:22.429Z,100947.22
2022-08-11T04:14:57.016Z,100941.03
2022-08-11T04:22:39.080Z,100945.78
2022-08-11T04:30:03.824Z,100945.63
2022-08-11T04:37:42.853Z,100935.50
2022-08-11T04:45:31.097Z,100947.47
2022-08-11T04:53:22.816Z,100938.13
2022-08-11T05:00:28.385Z,100948.78
2022-08-11T05:08:06.195Z,100947.78
2022-08-11T05:15:07.185Z,100951.25
2022-08-11T05:22:13.292Z,100950.06
2022-08-11T05:29:19.728Z,100961.44
2022-08-11T05:36:18.620Z,100914.59
2022-08-11T05:43:27.449Z,100971.19
2022-08-11T05:50:31.113Z,100893.34
2022-08-11T05:57:49.758Z,100981.03
2022-08-11T06:04:35.247Z,100980.78
2022-08-11T06:11:44.458Z,100984.50
2022-08-11T06:18:27.183Z,100981.50
2022-08-11T06:25:16.905Z,100970.34
2022-08-11T06:32:05.977Z,100792.50
2022-08-11T06:39:06.017Z,100983.44
2022-08-11T06:46:03.966Z,100978.28
2022-08-11T06:52:51.597Z,100979.25
2022-08-11T06:59:52.261Z,100974.50
2022-08-11T07:07:17.020Z,100975.38
2022-08-11T07:14:17.917Z,100975.44
2022-08-11T07:22:01.887Z,100977.09
2022-08-11T07:29:00.633Z,100971.09
2022-08-11T07:35:51.693Z,100966.66
2022-08-11T07:42:38.864Z,100917.09
2022-08-11T07:49:39.993Z,100972.28
2022-08-11T07:56:54.887Z,100977.91
2022-08-11T08:03:54.204Z,100880.44
2022-08-11T08:10:55.696Z,100954.81
2022-08-11T08:18:09.215Z,100934.28
2022-08-11T08:25:03.778Z,100892.38
2022-08-11T08:31:53.988Z,100968.28
2022-08-11T08:38:40.227Z,100986.25
2022-08-11T08:45:27.665Z,100982.56
2022-08-11T08:52:27.945Z,100971.56
2022-08-11T08:59:20.919Z,100922.44
2022-08-11T09:06:06.786Z,100982.94
2022-08-11T09:12:55.664Z,100974.69
2022-08-11T09:19:41.891Z,100971.69
2022-08-11T09:26:40.859Z,100969.53
2022-08-11T09:33:31.242Z,100957.94
2022-08-11T09:40:34.018Z,100958.81
2022-08-11T09:47:25.946Z,100954.66
2022-08-11T09:54:17.170Z,100946.75
2022-08-11T10:01:07.960Z,100949.31
2022-08-11T10:07:57.212Z,100895.66
2022-08-11T10:15:04.164Z,100946.66
2022-08-11T10:22:07.505Z,100944.59
2022-08-11T10:29:12.023Z,100880.91
2022-08-11T10:36:02.237Z,100921.63
2022-08-11T10:43:01.426Z,100916.22
2022-08-11T10:50:07.694Z,100880.13
2022-08-11T10:57:10.526Z,100912.78
2022-08-11T11:04:00.549Z,100891.84
2022-08-11T11:10:46.482Z,100890.97
2022-08-11T11:17:53.314Z,100873.97
2022-08-11T11:24:54.606Z,100853.75
2022-08-11T11:31:56.921Z,100849.84
2022-08-11T11:38:45.855Z,100783.09
2022-08-11T11:45:31.945Z,100851.47
2022-08-11T11:52:20.841Z,100842.78
2022-08-11T11:59:21.957Z,100821.81
2022-08-11T12:06:08.462Z,100813.47
2022-08-11T12:13:07.101Z,100798.00
2022-08-11T12:19:57.240Z,100798.25
2022-08-11T12:27:15.726Z,100796.78
2022-08-11T12:34:06.414Z,100742.28
2022-08-11T12:41:15.638Z,100773.66
2022-08-11T12:48:59.535Z,100768.19
2022-08-11T12:55:43.042Z,100742.59
2022-08-11T13:03:04.273Z,100747.75
2022-08-11T13:09:50.651Z,100682.94
2022-08-11T13:16:59.158Z,100745.81
2022-08-11T13:24:00.486Z,100728.72
2022-08-11T13:31:02.242Z,100738.28
2022-08-11T13:38:17.475Z,100669.69
2022-08-11T13:45:01.141Z,100697.88
2022-08-11T13:51:48.182Z,100702.97
2022-08-11T13:58:39.967Z,100692.38
2022-08-11T14:05:32.218Z,100681.34
2022-08-11T14:12:39.411Z,100669.94
2022-08-11T14:19:28.546Z,100674.59
2022-08-11T14:26:27.172Z,100668.56
2022-08-11T14:33:17.326Z,100665.72
2022-08-11T14:40:31.809Z,100640.28
2022-08-11T14:47:24.046Z,100563.91
2022-08-11T14:54:23.389Z,100639.38
2022-08-11T15:01:30.376Z,100637.09
2022-08-11T15:08:42.033Z,100622.72
2022-08-11T15:15:42.106Z,100622.03
2022-08-11T15:22:40.247Z,100625.47
2022-08-11T15:29:46.701Z,100617.38
2022-08-11T15:36:47.108Z,100612.09
2022-08-11T15:43:56.399Z,100606.34
2022-08-11T15:50:51.013Z,100597.78
2022-08-11T15:57:52.199Z,100591.50
2022-08-11T16:04:40.532Z,100590.44
2022-08-11T16:11:30.401Z,100577.31
2022-08-11T16:18:23.772Z,100557.72
2022-08-11T16:27:02.835Z,100574.53
2022-08-11T16:32:25.819Z,100538.38
2022-08-11T16:39:13.360Z,100562.88
2022-08-11T16:46:12.290Z,100564.47
2022-08-11T16:53:00.436Z,100560.16
2022-08-11T16:59:47.185Z,100558.13
2022-08-11T17:06:45.405Z,100556.50
2022-08-11T17:13:40.072Z,100552.25
2022-08-11T17:20:42.364Z,100545.19
2022-08-11T17:27:30.541Z,100538.34
2022-08-11T17:34:31.758Z,100535.91
2022-08-11T17:41:31.096Z,100540.09
2022-08-11T17:48:30.024Z,100532.34
2022-08-11T17:55:52.451Z,100539.06
2022-08-11T18:02:54.154Z,100550.81
2022-08-11T18:09:52.666Z,100552.88
2022-08-11T18:16:53.431Z,100568.13
2022-08-11T18:23:51.592Z,100570.16
2022-08-11T18:31:01.888Z,100545.94
2022-08-11T18:38:06.695Z,100568.50
2022-08-11T18:45:07.153Z,100572.03
2022-08-11T18:52:09.218Z,100561.28
2022-08-11T18:59:12.248Z,100565.84
2022-08-11T19:06:38.142Z,100515.13
2022-08-11T19:13:32.848Z,100567.31
2022-08-11T19:20:40.817Z,100535.88
2022-08-11T19:27:40.584Z,100574.13
2022-08-11T19:34:41.078Z,100573.00
2022-08-11T19:41:56.468Z,100593.72
2022-08-11T19:48:57.924Z,100587.50
2022-08-11T19:55:56.599Z,100597.28
2022-08-11T20:02:57.354Z,100588.41
2022-08-11T20:10:04.958Z,100583.81
2022-08-11T20:17:05.053Z,100590.81
2022-08-11T20:24:06.125Z,100554.25
2022-08-11T20:31:05.809Z,100599.63
2022-08-11T20:38:04.813Z,100606.22
2022-08-11T20:45:07.300Z,100539.34
2022-08-11T20:52:06.499Z,100626.19
2022-08-11T20:59:21.730Z,100557.72
2022-08-11T21:06:31.181Z,100611.00
2022-08-11T21:13:33.369Z,100621.69
2022-08-11T21:20:33.960Z,100615.91
2022-08-11T21:27:37.694Z,100627.25
2022-08-11T21:34:37.848Z,100635.34
2022-08-11T21:41:36.277Z,100635.34
2022-08-11T21:48:38.255Z,100644.06
2022-08-11T21:55:40.402Z,100619.75
2022-08-11T22:02:39.233Z,100600.13
2022-08-11T22:09:40.085Z,100643.59
2022-08-11T22:16:38.176Z,100643.78
2022-08-11T22:23:37.965Z,100643.56
2022-08-11T22:30:38.567Z,100641.69
2022-08-11T22:37:37.932Z,100642.94
2022-08-11T22:44:36.378Z,100644.69
2022-08-11T22:51:40.086Z,100633.56
2022-08-11T22:58:38.850Z,100628.41
2022-08-11T23:05:37.825Z,100634.94
2022-08-11T23:12:38.818Z,100627.78
2022-08-11T23:20:10.572Z,100598.59
2022-08-11T23:26:57.620Z,100542.53
2022-08-11T23:34:02.866Z,100565.03
2022-08-11T23:41:05.772Z,100614.72
2022-08-11T23:48:05.897Z,100607.13
2022-08-11T23:55:07.025Z,100591.06
